Time;durP1;ratioP1;P1;durP2;ratioP2;P2;SDS_P1;SDS_P2;PMS_P1;PMS_P2;Temp;Humidity;BMP_temperature;BMP_pressure;BME280_temperature;BME280_humidity;BME280_pressure;Samples;Min_cycle;Max_cycle;Signal;HPM_P1;HPM_P2
2021/01/29 00:01:30;;;;;;;13.90;12.45;;;23.60;32.50;;;;;;5021705;28;20053;-56
2021/01/29 00:03:55;;;;;;;14.63;13.13;;;23.60;32.50;;;;;;5024264;28;20021;-56
2021/01/29 00:06:21;;;;;;;14.27;12.88;;;23.60;32.60;;;;;;5025502;28;20120;-59
2021/01/29 00:08:47;;;;;;;14.02;12.57;;;23.50;32.60;;;;;;5024556;28;20042;-57
2021/01/29 00:11:12;;;;;;;13.55;12.15;;;23.60;32.60;;;;;;5026178;28;20026;-55
2021/01/29 00:13:38;;;;;;;13.43;11.65;;;23.50;32.60;;;;;;5022149;28;20032;-58
2021/01/29 00:16:04;;;;;;;13.25;11.85;;;23.50;32.60;;;;;;5024651;28;20444;-55
2021/01/29 00:18:30;;;;;;;13.52;12.13;;;23.50;32.60;;;;;;5024619;28;20448;-54
2021/01/29 00:20:56;;;;;;;12.93;11.38;;;23.50;32.60;;;;;;5023945;28;20030;-55
2021/01/29 00:23:22;;;;;;;11.20;10.10;;;23.50;32.60;;;;;;5022508;28;20021;-57
2021/01/29 00:25:53;;;;;;;11.60;10.40;;;23.50;32.70;;;;;;5025624;28;20037;-55
2021/01/29 00:28:21;;;;;;;12.05;10.75;;;23.40;32.60;;;;;;5021117;28;20409;-58
2021/01/29 00:30:49;;;;;;;12.35;11.05;;;23.40;32.60;;;;;;5024787;28;20070;-56
2021/01/29 00:33:16;;;;;;;11.20;10.05;;;23.40;32.70;;;;;;5038976;28;20022;-59
2021/01/29 00:35:42;;;;;;;12.32;10.73;;;23.40;32.70;;;;;;5025522;28;20053;-58
2021/01/29 00:38:09;;;;;;;11.18;10.07;;;23.40;32.70;;;;;;5023101;28;20103;-57
2021/01/29 00:40:36;;;;;;;11.02;9.93;;;23.40;32.70;;;;;;5023796;28;20081;-57
2021/01/29 00:43:04;;;;;;;11.40;9.85;;;23.40;32.70;;;;;;5025918;28;20048;-59
2021/01/29 00:45:31;;;;;;;11.68;9.88;;;23.40;32.80;;;;;;5023390;28;20132;-54
2021/01/29 00:47:58;;;;;;;12.25;10.73;;;23.40;32.80;;;;;;5023099;28;20429;-58
2021/01/29 00:50:25;;;;;;;13.07;11.13;;;23.40;32.80;;;;;;5024219;28;20060;-52
2021/01/29 00:52:51;;;;;;;11.02;9.93;;;23.40;32.80;;;;;;5022068;28;20037;-58
2021/01/29 00:55:19;;;;;;;11.57;9.55;;;23.30;32.80;;;;;;5006769;28;20033;-52
2021/01/29 00:57:53;;;;;;;10.82;9.73;;;23.30;32.80;;;;;;5007966;28;20027;-55
2021/01/29 01:00:55;;;;;;;10.45;9.35;;;23.40;32.90;;;;;;5024511;28;20068;-56
2021/01/29 01:03:29;;;;;;;10.30;8.82;;;23.30;32.80;;;;;;5022940;28;20049;-59
2021/01/29 01:05:55;;;;;;;10.60;9.50;;;23.30;32.90;;;;;;5024267;28;20488;-53
2021/01/29 01:08:38;;;;;;;11.50;9.77;;;23.30;32.90;;;;;;5022430;28;20040;-56
2021/01/29 01:11:19;;;;;;;10.27;9.27;;;23.30;32.90;;;;;;5021382;28;20108;-57
2021/01/29 01:14:05;;;;;;;9.48;8.48;;;23.20;32.90;;;;;;5022728;28;20034;-58
2021/01/29 01:16:37;;;;;;;9.20;8.18;;;23.20;32.90;;;;;;5022866;28;20046;-56
2021/01/29 01:19:10;;;;;;;8.70;7.82;;;23.20;32.90;;;;;;5023035;28;20359;-58
2021/01/29 01:21:48;;;;;;;8.50;7.40;;;23.20;32.90;;;;;;5023660;28;20346;-55
2021/01/29 01:24:42;;;;;;;9.60;8.15;;;23.20;32.90;;;;;;5024145;28;20433;-54
2021/01/29 01:27:15;;;;;;;8.75;7.85;;;23.20;32.90;;;;;;5021281;28;20362;-55
2021/01/29 01:30:00;;;;;;;9.00;8.00;;;23.20;32.90;;;;;;5023044;28;20118;-57
2021/01/29 01:32:26;;;;;;;9.05;7.47;;;23.20;32.90;;;;;;5023164;28;20025;-58
2021/01/29 01:35:12;;;;;;;8.05;7.25;;;23.20;33.00;;;;;;5023823;28;20164;-57
2021/01/29 01:37:37;;;;;;;9.25;7.93;;;23.10;32.90;;;;;;5025071;28;20105;-59
2021/01/29 01:40:37;;;;;;;8.35;7.32;;;23.10;32.90;;;;;;4999541;28;20038;-56
2021/01/29 01:43:03;;;;;;;7.72;6.93;;;23.10;32.90;;;;;;5021502;28;20444;-56
2021/01/29 01:45:34;;;;;;;8.75;7.53;;;23.10;33.00;;;;;;5021911;28;20385;-55
2021/01/29 01:48:02;;;;;;;8.15;7.35;;;23.10;33.00;;;;;;5021461;28;20080;-58
2021/01/29 01:50:49;;;;;;;7.78;6.95;;;23.10;33.00;;;;;;4972917;28;20116;-58
2021/01/29 01:53:24;;;;;;;8.38;7.00;;;23.10;33.00;;;;;;4987200;28;20027;-55
2021/01/29 01:56:13;;;;;;;7.57;6.85;;;23.10;33.00;;;;;;4968517;28;20038;-54
2021/01/29 01:59:21;;;;;;;7.20;6.50;;;23.10;33.00;;;;;;4972763;28;20169;-53
2021/01/29 02:02:14;;;;;;;6.97;6.25;;;23.10;33.00;;;;;;4955619;28;20126;-49
2021/01/29 02:05:21;;;;;;;7.53;6.47;;;23.00;32.90;;;;;;4940572;28;20118;-51
2021/01/29 02:08:12;;;;;;;7.43;6.63;;;23.00;32.90;;;;;;4972252;28;20031;-49
2021/01/29 02:10:57;;;;;;;6.55;5.90;;;23.00;33.00;;;;;;4972249;28;20566;-50
2021/01/29 02:13:31;;;;;;;7.25;6.32;;;23.00;33.00;;;;;;4971717;28;20117;-57
2021/01/29 02:16:23;;;;;;;6.68;5.97;;;23.00;33.00;;;;;;4970061;28;20070;-59
2021/01/29 02:19:08;;;;;;;7.72;6.63;;;23.00;33.00;;;;;;4955689;28;20035;-60
2021/01/29 02:21:40;;;;;;;6.60;5.60;;;23.00;33.10;;;;;;5006342;28;20048;-57
2021/01/29 02:24:17;;;;;;;6.80;5.97;;;23.00;33.10;;;;;;5022299;28;20187;-53
2021/01/29 02:27:24;;;;;;;6.35;5.55;;;23.00;33.10;;;;;;5022955;28;20421;-51
2021/01/29 02:30:19;;;;;;;6.57;5.88;;;23.00;33.10;;;;;;5023267;28;20030;-51
2021/01/29 02:33:14;;;;;;;6.82;5.70;;;22.90;33.10;;;;;;5021999;28;20041;-54
2021/01/29 02:36:09;;;;;;;6.00;5.40;;;22.90;33.10;;;;;;5019832;28;20371;-50
2021/01/29 02:39:04;;;;;;;6.80;5.75;;;22.90;33.10;;;;;;5019679;28;20083;-59
2021/01/29 02:42:32;;;;;;;6.57;5.43;;;22.90;33.10;;;;;;5023715;28;20093;-53
2021/01/29 02:45:49;;;;;;;6.13;4.90;;;22.90;33.10;;;;;;4982790;28;20046;-52
2021/01/29 02:48:44;;;;;;;6.20;5.30;;;22.90;33.10;;;;;;4984947;28;20030;-52
2021/01/29 02:51:22;;;;;;;6.18;5.15;;;22.80;33.10;;;;;;5020941;28;20037;-57
2021/01/29 02:54:18;;;;;;;6.07;5.47;;;22.90;33.10;;;;;;5022988;28;20044;-55
2021/01/29 02:57:16;;;;;;;6.10;5.13;;;22.90;33.20;;;;;;5021398;28;20030;-56
2021/01/29 03:00:23;;;;;;;5.90;4.93;;;22.90;33.20;;;;;;5021692;28;20094;-58
2021/01/29 03:03:20;;;;;;;6.90;5.20;;;22.80;33.20;;;;;;5020025;28;20036;-56
2021/01/29 03:06:01;;;;;;;5.60;4.82;;;22.80;33.20;;;;;;5020517;28;20338;-57
2021/01/29 03:08:39;;;;;;;5.75;5.15;;;22.80;33.20;;;;;;5024511;28;20115;-56
2021/01/29 03:11:35;;;;;;;5.75;5.13;;;22.80;33.20;;;;;;5022291;28;20056;-56
2021/01/29 03:14:30;;;;;;;5.78;4.85;;;22.80;33.30;;;;;;5021431;28;20187;-58
2021/01/29 03:17:23;;;;;;;5.28;4.78;;;22.80;33.30;;;;;;5023444;28;20045;-55
2021/01/29 03:20:16;;;;;;;4.93;4.43;;;22.80;33.30;;;;;;5020762;28;20076;-52
2021/01/29 03:23:36;;;;;;;5.20;4.70;;;22.80;33.30;;;;;;4959014;28;20441;-55
2021/01/29 03:26:36;;;;;;;5.13;4.43;;;22.80;33.30;;;;;;4999651;28;20038;-58
2021/01/29 03:29:23;;;;;;;5.45;4.35;;;22.70;33.30;;;;;;5021575;28;20080;-54
2021/01/29 03:32:12;;;;;;;5.30;4.80;;;22.70;33.30;;;;;;5020283;28;20133;-56
2021/01/29 03:35:14;;;;;;;5.88;4.72;;;22.70;33.30;;;;;;5018947;28;20048;-53
2021/01/29 03:38:18;;;;;;;8.18;4.60;;;22.70;33.30;;;;;;5022287;28;20036;-57
2021/01/29 03:41:13;;;;;;;5.80;4.60;;;22.70;33.30;;;;;;5025256;28;20053;-58
2021/01/29 03:44:13;;;;;;;5.45;4.70;;;22.70;33.30;;;;;;5023443;28;20510;-56
2021/01/29 03:47:11;;;;;;;5.10;4.45;;;22.70;33.40;;;;;;5000520;28;20046;-54
2021/01/29 03:50:17;;;;;;;4.88;4.13;;;22.70;33.40;;;;;;5027417;28;20064;-55
2021/01/29 03:53:19;;;;;;;4.22;3.72;;;22.70;33.40;;;;;;5024988;28;20764;-57
2021/01/29 03:56:35;;;;;;;4.90;4.10;;;22.60;33.40;;;;;;4972237;28;20034;-55
2021/01/29 03:59:26;;;;;;;5.13;3.75;;;22.60;33.40;;;;;;5027180;28;20068;-57
2021/01/29 04:02:23;;;;;;;4.78;4.15;;;22.60;33.40;;;;;;5026023;28;20460;-56
2021/01/29 04:05:16;;;;;;;5.05;4.03;;;22.60;33.40;;;;;;5023765;28;20157;-59
2021/01/29 04:08:08;;;;;;;4.55;4.05;;;22.60;33.40;;;;;;5024942;28;20122;-52
2021/01/29 04:10:59;;;;;;;3.72;3.35;;;22.60;33.40;;;;;;5013428;28;20034;-59
2021/01/29 04:13:48;;;;;;;4.00;3.42;;;22.60;33.50;;;;;;5024230;28;20072;-55
2021/01/29 04:16:30;;;;;;;3.95;3.55;;;22.60;33.50;;;;;;5020297;28;20515;-57
2021/01/29 04:19:00;;;;;;;4.07;3.50;;;22.60;33.50;;;;;;5036363;28;20040;-57
2021/01/29 04:21:39;;;;;;;4.45;3.95;;;22.60;33.50;;;;;;5026080;28;20043;-54
2021/01/29 04:24:12;;;;;;;4.15;3.63;;;22.60;33.50;;;;;;5017239;28;20400;-58
2021/01/29 04:26:45;;;;;;;4.25;3.60;;;22.60;33.50;;;;;;5023231;28;20026;-54
2021/01/29 04:29:22;;;;;;;4.43;3.78;;;22.60;33.50;;;;;;5017001;28;20077;-56
2021/01/29 04:31:53;;;;;;;5.18;3.60;;;22.60;33.50;;;;;;5018038;28;20073;-57
2021/01/29 04:34:25;;;;;;;4.18;3.78;;;22.60;33.50;;;;;;5018341;28;20038;-57
2021/01/29 04:36:53;;;;;;;4.65;3.88;;;22.50;33.50;;;;;;5033286;28;20053;-57
2021/01/29 04:39:41;;;;;;;4.18;3.60;;;22.60;33.50;;;;;;5028545;28;20346;-55
2021/01/29 04:42:16;;;;;;;4.63;3.72;;;22.50;33.50;;;;;;5017068;28;20030;-57
2021/01/29 04:44:58;;;;;;;3.63;3.13;;;22.50;33.50;;;;;;5032391;28;20332;-57
2021/01/29 04:47:59;;;;;;;4.43;3.35;;;22.50;33.60;;;;;;5025569;28;20033;-58
2021/01/29 04:51:02;;;;;;;3.78;3.25;;;22.50;33.60;;;;;;5016941;28;20045;-58
2021/01/29 04:54:07;;;;;;;3.90;3.10;;;22.50;33.60;;;;;;4986188;28;20050;-55
2021/01/29 04:57:27;;;;;;;3.85;3.03;;;22.50;33.60;;;;;;4995164;28;20045;-56
2021/01/29 05:00:15;;;;;;;4.25;3.03;;;22.50;33.60;;;;;;4939742;29;20039;-61
2021/01/29 05:03:23;;;;;;;3.72;3.25;;;22.50;33.60;;;;;;5023175;28;20048;-57
2021/01/29 05:06:22;;;;;;;3.40;2.88;;;22.50;33.70;;;;;;5024427;28;20044;-57
2021/01/29 05:09:31;;;;;;;2.90;2.53;;;22.50;33.70;;;;;;5036100;28;20076;-53
2021/01/29 05:12:57;;;;;;;3.92;3.03;;;22.50;33.80;;;;;;5015004;28;20121;-59
2021/01/29 05:15:32;;;;;;;3.33;2.70;;;22.40;33.70;;;;;;5015627;28;20445;-56
2021/01/29 05:18:45;;;;;;;3.33;2.58;;;22.50;33.80;;;;;;5016168;28;20054;-57
2021/01/29 05:21:29;;;;;;;2.72;2.50;;;22.40;33.80;;;;;;4969643;28;20052;-56
2021/01/29 05:23:58;;;;;;;3.58;3.10;;;22.40;33.80;;;;;;5017920;28;20034;-53
2021/01/29 05:26:42;;;;;;;3.25;2.88;;;22.40;33.80;;;;;;5035670;28;20025;-58
2021/01/29 05:29:39;;;;;;;2.80;2.47;;;22.40;33.90;;;;;;5019631;28;20041;-55
2021/01/29 05:32:46;;;;;;;3.72;2.88;;;22.40;33.90;;;;;;5017878;28;20464;-57
2021/01/29 05:35:41;;;;;;;2.80;2.50;;;22.40;33.90;;;;;;5022616;28;20049;-57
2021/01/29 05:38:38;;;;;;;2.80;2.53;;;22.40;33.90;;;;;;5024516;28;20022;-57
2021/01/29 05:41:26;;;;;;;2.90;2.53;;;22.40;34.00;;;;;;5035365;28;20029;-54
2021/01/29 05:44:11;;;;;;;3.03;2.53;;;22.40;33.90;;;;;;5032173;28;20159;-55
2021/01/29 05:46:51;;;;;;;2.38;2.17;;;22.40;34.00;;;;;;5015558;28;20032;-60
2021/01/29 05:49:20;;;;;;;2.35;2.15;;;22.40;34.00;;;;;;5032736;28;20052;-56
2021/01/29 05:52:08;;;;;;;2.83;2.47;;;22.40;34.00;;;;;;5035216;28;20492;-56
2021/01/29 05:54:54;;;;;;;2.75;2.47;;;22.40;34.10;;;;;;5022068;28;20041;-59
2021/01/29 05:57:37;;;;;;;2.45;2.25;;;22.40;34.10;;;;;;5021223;28;20441;-58
2021/01/29 06:00:08;;;;;;;2.40;2.20;;;22.40;34.10;;;;;;5034391;28;20036;-60
2021/01/29 06:03:22;;;;;;;2.55;2.35;;;22.40;34.10;;;;;;5032324;28;20041;-54
2021/01/29 06:06:26;;;;;;;2.50;2.20;;;22.40;34.20;;;;;;5023436;28;20026;-56
2021/01/29 06:09:20;;;;;;;2.55;2.15;;;22.40;34.20;;;;;;5015094;28;20037;-59
2021/01/29 06:11:57;;;;;;;2.67;2.42;;;22.30;34.20;;;;;;5022669;28;20026;-53
2021/01/29 06:14:45;;;;;;;2.58;2.00;;;22.30;34.20;;;;;;5026650;28;20033;-55
2021/01/29 06:17:36;;;;;;;2.53;2.08;;;22.30;34.30;;;;;;5016352;28;20061;-55
2021/01/29 06:20:08;;;;;;;2.20;1.77;;;22.30;34.30;;;;;;5014951;28;20033;-58
2021/01/29 06:22:53;;;;;;;2.85;2.00;;;22.30;34.30;;;;;;5014838;28;20026;-56
2021/01/29 06:25:37;;;;;;;3.80;2.40;;;22.30;34.40;;;;;;5015891;28;20061;-55
2021/01/29 06:28:18;;;;;;;2.67;2.20;;;22.30;34.50;;;;;;5015597;28;20462;-58
2021/01/29 06:30:52;;;;;;;1.92;1.70;;;22.30;34.50;;;;;;5018624;28;20037;-56
2021/01/29 06:33:51;;;;;;;2.17;1.95;;;22.30;34.60;;;;;;5034537;28;20076;-55
2021/01/29 06:36:58;;;;;;;2.70;1.80;;;22.30;34.50;;;;;;4984183;28;20057;-58
2021/01/29 06:39:42;;;;;;;2.70;1.63;;;22.30;34.60;;;;;;5006978;28;20445;-60
2021/01/29 06:42:24;;;;;;;2.20;1.95;;;22.30;34.60;;;;;;5014824;28;20112;-53
2021/01/29 06:45:10;;;;;;;2.00;1.80;;;22.30;34.70;;;;;;5017620;28;20040;-56
2021/01/29 06:47:48;;;;;;;1.65;1.52;;;22.30;34.70;;;;;;5020101;28;20041;-49
2021/01/29 06:50:42;;;;;;;2.28;1.98;;;22.30;34.80;;;;;;5020858;28;20353;-52
2021/01/29 06:53:32;;;;;;;1.90;1.63;;;22.20;34.70;;;;;;5029152;28;20037;-52
2021/01/29 06:56:43;;;;;;;2.40;1.92;;;22.30;34.80;;;;;;5017649;28;20444;-57
2021/01/29 06:59:39;;;;;;;2.30;1.85;;;22.30;34.80;;;;;;5026856;28;20030;-56
2021/01/29 07:02:04;;;;;;;1.80;1.60;;;22.20;34.80;;;;;;5020156;28;20033;-53
2021/01/29 07:05:12;;;;;;;2.03;1.83;;;22.20;34.80;;;;;;5028586;28;20022;-58
2021/01/29 07:07:50;;;;;;;1.67;1.50;;;22.20;34.80;;;;;;5011485;28;20045;-57
2021/01/29 07:10:38;;;;;;;1.83;1.50;;;22.20;34.90;;;;;;5021325;28;20107;-54
2021/01/29 07:13:22;;;;;;;2.45;1.65;;;22.20;34.90;;;;;;5027667;28;20026;-50
2021/01/29 07:16:00;;;;;;;2.30;1.55;;;22.20;34.90;;;;;;5025606;28;20033;-60
2021/01/29 07:18:53;;;;;;;2.17;1.42;;;22.20;35.00;;;;;;5017959;28;20018;-56
2021/01/29 07:21:45;;;;;;;1.48;1.38;;;22.20;35.00;;;;;;5029604;28;20030;-51
2021/01/29 07:24:50;;;;;;;1.85;1.67;;;22.10;35.00;;;;;;5028091;28;20463;-58
2021/01/29 07:27:26;;;;;;;;;;;22.20;35.10;;;;;;4997466;28;20049;-54
2021/01/29 07:30:06;;;;;;;2.28;1.45;;;22.10;35.10;;;;;;5018004;28;19929;-55
2021/01/29 07:32:42;;;;;;;1.70;1.33;;;22.10;35.10;;;;;;5020135;28;20033;-53
2021/01/29 07:35:14;;;;;;;1.60;1.50;;;22.10;35.20;;;;;;5025494;28;20033;-55
2021/01/29 07:38:11;;;;;;;1.88;1.50;;;22.10;35.20;;;;;;5026701;28;20044;-51
2021/01/29 07:40:49;;;;;;;1.50;1.17;;;22.10;35.30;;;;;;5027136;28;20033;-52
2021/01/29 07:43:37;;;;;;;2.25;1.70;;;22.10;35.30;;;;;;5023569;28;20026;-54
2021/01/29 07:46:17;;;;;;;1.50;1.40;;;22.10;35.30;;;;;;5017197;28;20131;-50
2021/01/29 07:48:52;;;;;;;1.30;1.20;;;22.10;35.40;;;;;;5021316;28;20076;-58
2021/01/29 07:51:48;;;;;;;1.80;1.30;;;22.10;35.40;;;;;;5029839;28;20033;-53
2021/01/29 07:54:43;;;;;;;2.00;1.38;;;22.10;35.60;;;;;;5021801;28;20113;-53
2021/01/29 07:57:27;;;;;;;;;;;22.10;35.60;;;;;;5029385;28;20160;-51
2021/01/29 08:00:07;;;;;;;1.23;1.00;;;22.10;35.60;;;;;;5026136;28;19917;-55
2021/01/29 08:03:02;;;;;;;1.27;1.05;;;22.10;35.70;;;;;;5017345;28;20034;-55
2021/01/29 08:05:42;;;;;;;2.63;1.23;;;22.10;35.90;;;;;;5017139;28;20034;-54
2021/01/29 08:08:22;;;;;;;1.67;1.20;;;22.10;35.80;;;;;;5025334;28;20112;-58
2021/01/29 08:11:01;;;;;;;1.27;1.00;;;22.20;35.90;;;;;;5028900;28;20037;-58
2021/01/29 08:13:42;;;;;;;2.83;1.20;;;22.20;35.90;;;;;;5023277;28;20095;-57
2021/01/29 08:16:50;;;;;;;1.10;1.00;;;22.20;35.80;;;;;;5021948;28;20117;-58
2021/01/29 08:19:27;;;;;;;2.13;1.23;;;22.20;35.80;;;;;;5027365;28;20345;-56
2021/01/29 08:22:19;;;;;;;1.98;1.20;;;22.20;35.80;;;;;;5017457;28;20030;-56
2021/01/29 08:24:58;;;;;;;3.28;1.10;;;22.20;35.80;;;;;;5028717;28;20028;-56
2021/01/29 08:27:53;;;;;;;1.42;1.00;;;22.20;35.80;;;;;;5021792;28;20041;-55
2021/01/29 08:31:07;;;;;;;1.50;0.98;;;22.30;35.80;;;;;;5023878;28;20483;-56
2021/01/29 08:34:18;;;;;;;2.10;1.25;;;22.30;35.90;;;;;;5007820;28;20063;-58
2021/01/29 08:36:48;;;;;;;2.30;1.30;;;22.30;35.90;;;;;;5024705;28;20030;-54
2021/01/29 08:39:46;;;;;;;1.80;0.98;;;22.40;35.90;;;;;;5029151;28;20073;-55
2021/01/29 08:42:21;;;;;;;1.60;1.20;;;22.40;35.90;;;;;;4982220;28;20140;-58
2021/01/29 08:45:13;;;;;;;1.80;1.23;;;22.40;35.90;;;;;;5027475;28;20068;-57
2021/01/29 08:47:58;;;;;;;3.25;0.90;;;22.40;35.90;;;;;;5027514;28;20041;-59
2021/01/29 08:50:49;;;;;;;2.20;1.20;;;22.50;35.90;;;;;;5026597;28;20037;-57
2021/01/29 08:53:21;;;;;;;1.77;1.10;;;22.60;35.90;;;;;;5031297;28;20703;-53
2021/01/29 08:56:11;;;;;;;1.38;0.98;;;22.60;35.90;;;;;;5022944;28;20060;-58
2021/01/29 08:59:01;;;;;;;1.70;1.23;;;22.70;35.90;;;;;;5018700;28;20129;-59
2021/01/29 09:01:49;;;;;;;1.95;1.23;;;22.80;36.00;;;;;;5021772;28;20456;-54
2021/01/29 09:04:42;;;;;;;1.75;1.20;;;22.80;36.00;;;;;;5030792;28;20037;-57
2021/01/29 09:07:22;;;;;;;1.73;0.98;;;22.90;36.00;;;;;;5026823;28;20099;-58
2021/01/29 09:09:51;;;;;;;1.88;1.30;;;23.00;36.00;;;;;;5018993;28;20046;-56
2021/01/29 09:12:26;;;;;;;2.13;1.30;;;23.00;35.90;;;;;;5023087;28;20101;-60
2021/01/29 09:15:01;;;;;;;1.52;1.00;;;23.10;35.90;;;;;;5026611;28;20068;-54
2021/01/29 09:17:40;;;;;;;2.70;1.13;;;23.10;35.90;;;;;;5033466;28;20030;-58
2021/01/29 09:20:09;;;;;;;2.38;1.15;;;23.20;35.90;;;;;;5015822;28;20034;-56
2021/01/29 09:23:05;;;;;;;1.52;0.90;;;23.20;35.80;;;;;;5031903;28;20041;-56
2021/01/29 09:25:41;;;;;;;1.52;1.02;;;23.30;35.80;;;;;;5021709;28;20400;-61
2021/01/29 09:28:22;;;;;;;1.75;1.17;;;23.30;35.70;;;;;;5028960;28;20407;-59
2021/01/29 09:30:56;;;;;;;2.10;1.50;;;23.40;35.70;;;;;;5028518;28;20061;-54
2021/01/29 09:33:23;;;;;;;2.30;1.27;;;23.40;35.60;;;;;;5030495;28;20432;-56
2021/01/29 09:35:57;;;;;;;1.30;1.02;;;23.50;35.60;;;;;;5024696;28;20013;-56
2021/01/29 09:38:28;;;;;;;;;;;23.60;35.50;;;;;;5017167;28;20061;-58
2021/01/29 09:41:16;;;;;;;2.33;1.20;;;23.70;35.50;;;;;;5023657;28;19963;-57
2021/01/29 09:44:03;;;;;;;2.10;1.27;;;23.70;35.40;;;;;;5028848;28;20037;-53
2021/01/29 09:46:40;;;;;;;1.20;0.90;;;23.80;35.30;;;;;;5020571;28;20338;-51
2021/01/29 09:49:10;;;;;;;2.10;1.00;;;23.80;35.30;;;;;;5014490;28;20483;-58
2021/01/29 09:52:00;;;;;;;2.25;1.05;;;23.90;35.30;;;;;;5020622;28;20044;-59
2021/01/29 09:54:44;;;;;;;2.60;0.90;;;24.00;35.20;;;;;;5015147;28;20445;-55
2021/01/29 09:57:17;;;;;;;3.35;1.17;;;24.00;35.10;;;;;;5028047;28;20429;-53
2021/01/29 09:59:51;;;;;;;2.58;1.00;;;24.00;35.00;;;;;;5018535;28;20311;-55
2021/01/29 10:02:50;;;;;;;1.85;1.05;;;24.00;35.00;;;;;;5024339;28;20341;-56
2021/01/29 10:05:26;;;;;;;3.10;1.10;;;24.10;35.00;;;;;;4987872;28;20483;-56
2021/01/29 10:08:07;;;;;;;2.35;0.95;;;24.10;35.00;;;;;;5021906;28;20025;-58
2021/01/29 10:10:57;;;;;;;1.52;0.98;;;24.10;35.00;;;;;;5028602;28;20722;-56
2021/01/29 10:13:44;;;;;;;1.83;1.05;;;24.10;35.00;;;;;;5027951;28;20044;-58
2021/01/29 10:16:29;;;;;;;1.45;0.90;;;24.10;35.00;;;;;;5026546;28;20161;-57
2021/01/29 10:19:17;;;;;;;2.20;1.20;;;24.10;35.00;;;;;;5023656;28;20448;-58
2021/01/29 10:21:45;;;;;;;2.22;1.20;;;24.20;35.20;;;;;;5016763;28;20657;-55
2021/01/29 10:24:22;;;;;;;2.85;1.20;;;24.10;35.20;;;;;;5017023;28;20045;-57
2021/01/29 10:26:57;;;;;;;3.80;1.52;;;24.10;35.30;;;;;;5034619;28;20540;-57
2021/01/29 10:29:25;;;;;;;2.53;1.42;;;24.10;35.40;;;;;;5024295;28;20056;-57
2021/01/29 10:32:07;;;;;;;2.50;1.00;;;24.10;35.60;;;;;;5017253;28;20128;-58
2021/01/29 10:34:37;;;;;;;2.60;1.17;;;24.10;35.70;;;;;;5020750;28;20099;-58
2021/01/29 10:37:55;;;;;;;2.97;1.20;;;24.10;35.90;;;;;;5034425;28;20033;-58
2021/01/29 10:40:38;;;;;;;2.28;1.10;;;24.10;35.90;;;;;;4972082;28;20050;-56
2021/01/29 10:43:21;;;;;;;1.90;1.08;;;24.10;36.00;;;;;;5017398;28;20041;-59
2021/01/29 10:45:55;;;;;;;1.80;1.00;;;24.10;36.10;;;;;;5019074;28;20057;-57
2021/01/29 10:48:27;;;;;;;2.47;1.13;;;24.10;36.10;;;;;;5027233;28;20067;-60
2021/01/29 10:51:03;;;;;;;3.55;1.23;;;24.10;36.10;;;;;;5016483;28;20055;-50
2021/01/29 10:53:31;;;;;;;2.08;1.00;;;24.20;36.20;;;;;;5019117;28;20022;-51
2021/01/29 10:56:05;;;;;;;2.75;1.30;;;24.20;36.30;;;;;;5024131;28;20053;-57
2021/01/29 10:58:53;;;;;;;2.45;1.20;;;24.20;36.40;;;;;;5024779;28;20355;-57
2021/01/29 11:01:39;;;;;;;1.80;0.90;;;24.20;36.40;;;;;;5014578;28;20022;-56
2021/01/29 11:04:20;;;;;;;1.70;0.88;;;24.30;36.50;;;;;;5033556;28;20309;-53
2021/01/29 11:07:05;;;;;;;2.72;0.98;;;24.30;36.40;;;;;;5033850;28;20084;-52
2021/01/29 11:09:37;;;;;;;3.63;1.23;;;24.30;36.30;;;;;;5034437;28;20053;-54
2021/01/29 11:12:38;;;;;;;3.80;1.30;;;24.30;36.30;;;;;;5023278;28;20030;-49
2021/01/29 11:15:35;;;;;;;2.63;1.23;;;24.40;36.20;;;;;;5018024;28;20144;-53
2021/01/29 11:18:25;;;;;;;2.60;1.30;;;24.40;36.20;;;;;;5027689;28;20014;-54
2021/01/29 11:21:03;;;;;;;3.20;1.17;;;24.40;36.10;;;;;;5017613;28;20053;-59
2021/01/29 11:24:13;;;;;;;2.50;1.05;;;24.40;36.10;;;;;;5018882;28;20087;-57
2021/01/29 11:26:47;;;;;;;3.47;1.30;;;24.40;36.00;;;;;;5006358;28;20441;-59
2021/01/29 11:29:28;;;;;;;;;;;24.40;36.00;;;;;;5014941;28;20026;-57
2021/01/29 11:32:22;;;;;;;3.00;1.20;;;24.40;36.00;;;;;;5014439;28;19963;-55
2021/01/29 11:34:58;;;;;;;2.42;1.13;;;24.40;35.90;;;;;;5018805;28;20124;-55
2021/01/29 11:37:35;;;;;;;2.83;1.25;;;24.40;35.70;;;;;;5033353;28;20040;-58
2021/01/29 11:40:31;;;;;;;3.95;1.45;;;24.40;35.70;;;;;;5032214;28;20373;-58
2021/01/29 11:43:28;;;;;;;3.35;1.25;;;24.50;35.60;;;;;;5013974;28;20414;-56
2021/01/29 11:46:17;;;;;;;3.67;1.50;;;24.40;35.60;;;;;;5019088;28;20335;-51
2021/01/29 11:48:58;;;;;;;4.28;1.20;;;24.40;35.60;;;;;;5012851;28;20453;-58
2021/01/29 11:51:39;;;;;;;2.55;1.13;;;24.40;35.60;;;;;;5016244;28;20972;-58
2021/01/29 11:54:09;;;;;;;4.00;1.35;;;24.40;35.60;;;;;;5033604;28;20034;-58
2021/01/29 11:56:46;;;;;;;3.67;1.33;;;24.40;35.60;;;;;;5027086;28;20100;-53
2021/01/29 11:59:45;;;;;;;2.78;1.25;;;24.40;35.50;;;;;;5018167;28;20406;-61
2021/01/29 12:02:29;;;;;;;3.15;1.30;;;24.40;35.60;;;;;;5023168;28;20017;-59
2021/01/29 12:05:06;;;;;;;2.28;0.98;;;24.40;35.60;;;;;;5018812;28;20144;-57
2021/01/29 12:07:42;;;;;;;3.92;1.27;;;24.50;35.60;;;;;;5034119;28;20048;-58
2021/01/29 12:10:20;;;;;;;3.30;1.50;;;24.50;35.60;;;;;;5026777;28;20059;-58
2021/01/29 12:13:21;;;;;;;2.67;1.45;;;24.50;36.30;;;;;;5022773;28;20127;-54
2021/01/29 12:16:18;;;;;;;2.47;1.10;;;24.50;35.60;;;;;;4998074;28;20052;-59
2021/01/29 12:18:49;;;;;;;3.20;1.42;;;24.50;35.60;;;;;;5021799;28;20038;-58
2021/01/29 12:21:44;;;;;;;3.08;1.23;;;24.60;35.60;;;;;;5031545;28;20071;-55
2021/01/29 12:24:42;;;;;;;3.67;1.50;;;24.60;35.50;;;;;;5009632;28;20090;-60
2021/01/29 12:27:21;;;;;;;2.83;1.20;;;24.60;35.40;;;;;;5023539;28;20021;-60
2021/01/29 12:29:51;;;;;;;2.58;1.00;;;24.60;35.40;;;;;;5029714;28;20041;-58
2021/01/29 12:32:29;;;;;;;2.85;1.25;;;24.60;35.40;;;;;;5017213;28;20064;-55
2021/01/29 12:35:01;;;;;;;2.78;1.20;;;24.70;35.40;;;;;;5019884;28;20360;-57
2021/01/29 12:37:36;;;;;;;6.63;2.38;;;24.60;35.30;;;;;;5018710;28;20061;-57
2021/01/29 12:40:23;;;;;;;4.60;1.85;;;24.70;35.40;;;;;;5016097;28;20232;-57
2021/01/29 12:43:13;;;;;;;4.30;2.47;;;24.70;35.30;;;;;;5016136;28;20033;-57
2021/01/29 12:45:48;;;;;;;3.58;2.15;;;24.70;35.30;;;;;;5016337;28;20037;-57
2021/01/29 12:48:23;;;;;;;4.32;2.42;;;24.70;35.30;;;;;;5018926;28;20154;-58
2021/01/29 12:51:03;;;;;;;5.97;2.20;;;24.70;35.30;;;;;;5019113;28;20063;-56
2021/01/29 12:53:41;;;;;;;3.88;1.98;;;24.70;35.30;;;;;;5017954;28;20184;-54
2021/01/29 12:56:20;;;;;;;4.05;2.08;;;24.70;35.30;;;;;;5017599;28;20049;-58
2021/01/29 12:58:53;;;;;;;4.05;1.95;;;24.70;35.30;;;;;;5023188;28;20057;-57
2021/01/29 13:01:34;;;;;;;4.47;2.05;;;24.70;35.40;;;;;;5022955;28;20075;-53
2021/01/29 13:04:31;;;;;;;4.10;2.40;;;24.70;35.40;;;;;;5016314;28;20424;-57
2021/01/29 13:07:11;;;;;;;2.55;1.75;;;24.80;35.60;;;;;;5018363;28;20049;-54
2021/01/29 13:10:11;;;;;;;4.07;2.15;;;24.80;35.60;;;;;;5017693;28;20037;-57
2021/01/29 13:12:37;;;;;;;4.00;1.95;;;24.80;35.60;;;;;;5025502;28;20033;-57
2021/01/29 13:15:25;;;;;;;3.35;2.20;;;24.80;36.30;;;;;;5020034;28;20193;-53
2021/01/29 13:18:17;;;;;;;5.45;2.10;;;24.80;35.70;;;;;;5014174;28;20057;-53
2021/01/29 13:20:48;;;;;;;2.50;1.83;;;24.80;35.80;;;;;;5015584;28;20116;-55
2021/01/29 13:23:17;;;;;;;3.80;2.20;;;24.80;35.90;;;;;;5022940;28;20034;-58
2021/01/29 13:26:03;;;;;;;2.63;1.65;;;24.80;35.90;;;;;;5015115;28;20017;-57
2021/01/29 13:28:36;;;;;;;3.35;1.85;;;24.90;36.00;;;;;;4997776;28;20386;-61
2021/01/29 13:31:26;;;;;;;4.60;2.03;;;24.80;35.90;;;;;;5017803;28;20470;-57
2021/01/29 13:34:00;;;;;;;4.38;2.08;;;24.90;35.90;;;;;;5016446;28;20025;-57
2021/01/29 13:36:34;;;;;;;4.60;2.35;;;24.90;35.90;;;;;;5015163;28;20033;-58
2021/01/29 13:39:20;;;;;;;4.22;2.15;;;24.90;35.90;;;;;;5017152;28;20350;-59
2021/01/29 13:41:55;;;;;;;4.28;2.30;;;24.90;36.00;;;;;;5015460;28;20179;-57
2021/01/29 13:44:42;;;;;;;4.00;1.60;;;24.90;35.90;;;;;;5013781;28;20701;-54
2021/01/29 13:47:27;;;;;;;3.47;2.10;;;24.90;36.00;;;;;;5017300;28;20018;-54
2021/01/29 13:49:54;;;;;;;3.95;1.98;;;25.00;36.10;;;;;;5015807;28;20234;-57
2021/01/29 13:52:30;;;;;;;4.70;2.30;;;25.00;36.90;;;;;;5014705;28;20091;-57
2021/01/29 13:55:35;;;;;;;3.17;2.00;;;25.00;36.20;;;;;;5017601;28;20444;-52
2021/01/29 13:58:16;;;;;;;3.30;2.10;;;25.00;36.10;;;;;;5017347;28;20097;-56
2021/01/29 14:00:50;;;;;;;4.00;2.33;;;24.90;36.10;;;;;;5021055;28;20022;-51
2021/01/29 14:03:23;;;;;;;4.07;2.17;;;24.90;36.00;;;;;;5016270;28;20163;-54
2021/01/29 14:05:49;;;;;;;4.45;1.80;;;24.90;36.00;;;;;;5017168;28;20344;-51
2021/01/29 14:08:17;;;;;;;4.75;2.13;;;24.80;35.90;;;;;;5016648;28;20022;-55
2021/01/29 14:11:18;;;;;;;5.07;2.30;;;24.80;35.90;;;;;;5019945;28;20440;-56
2021/01/29 14:14:24;;;;;;;3.55;1.88;;;24.80;35.80;;;;;;4994443;28;20122;-60